Time;durP1;ratioP1;P1;durP2;ratioP2;P2;SDS_P1;SDS_P2;PMS_P1;PMS_P2;Temp;Humidity;BMP_temperature;BMP_pressure;BME280_temperature;BME280_humidity;BME280_pressure;Samples;Min_cycle;Max_cycle;Signal;HPM_P1;HPM_P2
2021/09/11 00:00:30;;;;;;;8.13;5.22;;;18.90;99.90;;;;;;5059846;28;20025;-84
2021/09/11 00:02:56;;;;;;;9.35;5.85;;;18.80;99.90;;;;;;5058350;28;20029;-84
2021/09/11 00:05:23;;;;;;;7.03;5.15;;;18.80;99.90;;;;;;5052630;28;20118;-85
2021/09/11 00:07:49;;;;;;;5.60;4.68;;;18.80;99.90;;;;;;5052251;28;20033;-85
2021/09/11 00:10:16;;;;;;;8.32;5.50;;;19.00;99.90;;;;;;5052043;28;20489;-85
2021/09/11 00:12:42;;;;;;;7.43;5.30;;;19.10;99.90;;;;;;5051919;28;20102;-85
2021/09/11 00:15:11;;;;;;;10.98;5.57;;;19.10;99.90;;;;;;5053062;28;20021;-85
2021/09/11 00:17:37;;;;;;;10.20;5.95;;;19.00;99.90;;;;;;5053158;28;20100;-85
2021/09/11 00:20:04;;;;;;;9.50;5.10;;;19.00;99.90;;;;;;5053062;28;20043;-86
2021/09/11 00:22:30;;;;;;;7.40;5.43;;;19.00;99.90;;;;;;5052292;28;20048;-85
2021/09/11 00:24:55;;;;;;;5.65;5.05;;;18.90;99.90;;;;;;5055945;28;20066;-85
2021/09/11 00:27:21;;;;;;;8.10;5.63;;;19.00;99.90;;;;;;5055898;28;20033;-85
2021/09/11 00:29:47;;;;;;;5.53;5.00;;;19.00;99.90;;;;;;5055843;28;20028;-85
2021/09/11 00:32:12;;;;;;;7.65;5.40;;;19.00;99.90;;;;;;5055753;28;20057;-85
2021/09/11 00:34:38;;;;;;;9.85;5.75;;;19.00;99.90;;;;;;5055641;28;20029;-85
2021/09/11 00:37:04;;;;;;;6.72;5.00;;;19.00;99.90;;;;;;5056971;28;20021;-85
2021/09/11 00:39:30;;;;;;;5.72;5.03;;;19.00;99.90;;;;;;5057286;28;20108;-85
2021/09/11 00:41:56;;;;;;;6.72;4.93;;;19.00;99.90;;;;;;5055709;28;20067;-85
2021/09/11 00:44:21;;;;;;;8.00;5.13;;;19.00;99.90;;;;;;5055638;28;20021;-85
2021/09/11 00:46:47;;;;;;;6.90;5.28;;;19.00;99.90;;;;;;5055547;28;20060;-84
2021/09/11 00:49:13;;;;;;;10.13;4.97;;;18.90;99.90;;;;;;5055509;28;20017;-85
2021/09/11 00:51:39;;;;;;;6.80;5.25;;;18.70;99.90;;;;;;5055421;28;20028;-85
2021/09/11 00:54:05;;;;;;;7.85;5.18;;;18.60;99.90;;;;;;5042076;28;20520;-85
2021/09/11 00:56:32;;;;;;;5.88;5.28;;;18.70;99.90;;;;;;5018865;28;20029;-85
2021/09/11 00:59:00;;;;;;;7.00;5.32;;;18.50;99.90;;;;;;5036613;28;20025;-85
2021/09/11 01:01:26;;;;;;;5.85;5.05;;;18.50;99.90;;;;;;5018883;28;20032;-85
2021/09/11 01:03:52;;;;;;;7.50;5.50;;;18.40;99.90;;;;;;5018770;28;20022;-85
2021/09/11 01:06:18;;;;;;;7.78;5.60;;;18.40;99.90;;;;;;5018774;28;20496;-85
2021/09/11 01:08:44;;;;;;;6.88;5.68;;;18.40;99.90;;;;;;5018721;28;20033;-85
2021/09/11 01:11:11;;;;;;;6.43;4.90;;;18.30;99.90;;;;;;5019025;28;20126;-85
2021/09/11 01:13:37;;;;;;;6.05;5.32;;;18.40;99.90;;;;;;5018690;28;20037;-85
2021/09/11 01:16:04;;;;;;;6.20;5.25;;;18.50;99.90;;;;;;5036257;28;20033;-84
2021/09/11 01:18:30;;;;;;;6.28;5.05;;;18.40;99.90;;;;;;5018574;28;20029;-84
2021/09/11 01:20:56;;;;;;;6.90;5.60;;;18.40;99.90;;;;;;5018471;28;20036;-85
2021/09/11 01:23:22;;;;;;;8.07;4.78;;;18.40;99.90;;;;;;5018427;28;20112;-85
2021/09/11 01:25:48;;;;;;;6.63;5.43;;;18.30;99.90;;;;;;5018410;28;20029;-85
2021/09/11 01:28:14;;;;;;;7.65;5.75;;;18.30;99.90;;;;;;5018423;28;20132;-85
2021/09/11 01:30:40;;;;;;;6.72;5.20;;;18.50;99.90;;;;;;5036102;28;20485;-85
2021/09/11 01:33:06;;;;;;;5.95;5.25;;;18.50;99.90;;;;;;5018265;28;20029;-85
2021/09/11 01:35:32;;;;;;;8.38;4.90;;;18.70;99.90;;;;;;5035000;28;20385;-85
2021/09/11 01:37:58;;;;;;;6.07;4.70;;;18.60;99.90;;;;;;5018097;28;20384;-85
2021/09/11 01:40:24;;;;;;;5.05;4.50;;;18.50;99.90;;;;;;5018135;28;20028;-85
2021/09/11 01:42:50;;;;;;;5.80;4.82;;;18.50;99.90;;;;;;5018104;28;20474;-85
2021/09/11 01:45:19;;;;;;;6.55;4.38;;;18.60;99.90;;;;;;5017998;28;20377;-85
2021/09/11 01:47:45;;;;;;;6.68;4.57;;;18.50;99.90;;;;;;5018043;28;20021;-85
2021/09/11 01:50:13;;;;;;;6.10;4.60;;;18.50;99.90;;;;;;5018057;28;20501;-85
2021/09/11 01:52:39;;;;;;;5.88;4.03;;;18.50;99.90;;;;;;5017784;28;20061;-85
2021/09/11 01:55:08;;;;;;;8.40;4.53;;;18.50;99.90;;;;;;5017820;28;20035;-84
2021/09/11 01:57:39;;;;;;;6.25;5.00;;;18.40;99.90;;;;;;5017946;28;20545;-85
2021/09/11 02:00:09;;;;;;;6.43;4.57;;;18.30;99.90;;;;;;5017824;28;20026;-85
2021/09/11 02:02:35;;;;;;;8.52;5.05;;;18.20;99.90;;;;;;5017681;28;20025;-84
2021/09/11 02:05:00;;;;;;;7.30;5.00;;;18.20;99.90;;;;;;5017670;28;20096;-85
2021/09/11 02:07:26;;;;;;;8.20;5.00;;;18.20;99.90;;;;;;5035710;28;20496;-85
2021/09/11 02:09:52;;;;;;;7.90;4.90;;;18.40;99.90;;;;;;5017637;28;20026;-88
2021/09/11 02:12:18;;;;;;;5.75;5.03;;;18.40;99.90;;;;;;5019670;28;20021;-85
2021/09/11 02:14:44;;;;;;;6.85;5.28;;;18.30;99.90;;;;;;5024399;28;20497;-86
2021/09/11 02:17:09;;;;;;;9.15;4.95;;;18.40;99.90;;;;;;5021919;28;20030;-85
2021/09/11 02:19:35;;;;;;;8.23;5.10;;;18.30;99.90;;;;;;5018333;28;20035;-86
2021/09/11 02:22:03;;;;;;;6.93;5.05;;;18.30;99.90;;;;;;5035550;28;20473;-86
2021/09/11 02:24:31;;;;;;;8.50;5.13;;;18.40;99.90;;;;;;5017439;28;20025;-85
2021/09/11 02:26:58;;;;;;;6.18;4.70;;;18.60;99.90;;;;;;5017297;28;20420;-85
2021/09/11 02:29:24;;;;;;;6.20;4.22;;;18.70;99.90;;;;;;5035023;28;20026;-86
2021/09/11 02:31:50;;;;;;;8.20;5.00;;;18.60;99.90;;;;;;5034950;28;20021;-85
2021/09/11 02:34:16;;;;;;;6.63;4.63;;;18.60;99.90;;;;;;5017098;28;20029;-85
2021/09/11 02:36:42;;;;;;;6.28;4.78;;;18.70;99.90;;;;;;5016928;28;20192;-85
2021/09/11 02:39:08;;;;;;;5.75;4.50;;;18.70;99.90;;;;;;5017057;28;20026;-85
2021/09/11 02:41:35;;;;;;;7.63;4.70;;;18.50;99.90;;;;;;5016997;28;20032;-85
2021/09/11 02:44:02;;;;;;;5.25;4.75;;;18.50;99.90;;;;;;5016950;28;20057;-86
2021/09/11 02:46:30;;;;;;;5.22;4.72;;;18.50;99.90;;;;;;5016734;28;20029;-85
2021/09/11 02:49:00;;;;;;;6.75;5.07;;;18.40;99.90;;;;;;5034853;28;20477;-86
2021/09/11 02:51:26;;;;;;;8.52;4.80;;;18.20;99.90;;;;;;5016896;28;20025;-85
2021/09/11 02:53:52;;;;;;;6.07;4.72;;;18.10;99.90;;;;;;5038618;28;20099;-85
2021/09/11 02:56:18;;;;;;;6.10;4.70;;;18.10;99.90;;;;;;5053086;28;20032;-85
2021/09/11 02:58:44;;;;;;;9.98;4.93;;;18.20;99.90;;;;;;5053114;28;20025;-85
2021/09/11 03:01:09;;;;;;;6.95;4.68;;;18.30;99.90;;;;;;5054321;28;20013;-85
2021/09/11 03:03:36;;;;;;;5.70;5.10;;;18.20;99.90;;;;;;5053013;28;20024;-85
2021/09/11 03:06:02;;;;;;;6.82;4.93;;;18.10;99.90;;;;;;5054225;28;20488;-85
2021/09/11 03:08:28;;;;;;;6.60;5.05;;;18.00;99.90;;;;;;5054175;28;20025;-86
2021/09/11 03:10:55;;;;;;;5.88;5.30;;;17.90;99.90;;;;;;5052910;28;20140;-85
2021/09/11 03:13:20;;;;;;;9.13;5.60;;;17.90;99.90;;;;;;5052853;28;20025;-86
2021/09/11 03:15:46;;;;;;;6.15;5.10;;;17.90;99.90;;;;;;5052719;28;20469;-86
2021/09/11 03:18:12;;;;;;;10.30;5.22;;;17.90;99.90;;;;;;5053963;28;20021;-87
2021/09/11 03:20:38;;;;;;;10.27;5.82;;;18.00;99.90;;;;;;5052648;28;20484;-85
2021/09/11 03:23:05;;;;;;;5.55;5.05;;;17.90;99.90;;;;;;5052645;28;20104;-86
2021/09/11 03:25:31;;;;;;;6.97;5.10;;;17.90;99.90;;;;;;5052585;28;20119;-85
2021/09/11 03:27:57;;;;;;;6.63;4.97;;;17.90;99.90;;;;;;5052523;28;20029;-86
2021/09/11 03:30:23;;;;;;;7.20;5.28;;;18.00;99.90;;;;;;5052531;28;20119;-86
2021/09/11 03:32:49;;;;;;;5.60;4.47;;;18.10;99.90;;;;;;5052467;28;20056;-86
2021/09/11 03:35:15;;;;;;;8.20;4.95;;;18.30;99.90;;;;;;5052311;28;20029;-86
2021/09/11 03:37:41;;;;;;;5.80;5.20;;;18.30;99.90;;;;;;5052332;28;20028;-86
2021/09/11 03:40:07;;;;;;;5.65;5.00;;;18.30;99.90;;;;;;5052347;28;20051;-85
2021/09/11 03:42:33;;;;;;;7.65;4.82;;;18.20;99.90;;;;;;5052299;28;20021;-85
2021/09/11 03:44:59;;;;;;;6.55;4.72;;;18.10;99.90;;;;;;5053493;28;20492;-86
2021/09/11 03:47:25;;;;;;;5.78;4.90;;;18.10;99.90;;;;;;5052197;28;20032;-85
2021/09/11 03:49:50;;;;;;;5.53;4.70;;;18.00;99.90;;;;;;5052268;28;20124;-86
2021/09/11 03:52:16;;;;;;;5.57;4.78;;;17.90;99.90;;;;;;5052129;28;20025;-85
2021/09/11 03:54:42;;;;;;;9.50;4.95;;;17.90;99.90;;;;;;5051853;28;20117;-85
2021/09/11 03:57:08;;;;;;;7.57;5.13;;;17.90;99.90;;;;;;5051558;28;20032;-85
2021/09/11 03:59:33;;;;;;;10.02;4.95;;;17.80;99.90;;;;;;5052038;28;20123;-85
2021/09/11 04:01:59;;;;;;;7.65;4.85;;;17.70;99.90;;;;;;5051920;28;20154;-85
2021/09/11 04:04:25;;;;;;;6.18;4.78;;;17.60;99.90;;;;;;5053239;28;20028;-85
2021/09/11 04:06:50;;;;;;;5.55;4.95;;;17.60;99.90;;;;;;5052005;28;20021;-85
2021/09/11 04:09:16;;;;;;;4.97;4.43;;;17.70;99.90;;;;;;5052266;28;20059;-85
2021/09/11 04:11:42;;;;;;;5.93;5.32;;;17.90;99.90;;;;;;5051881;28;20017;-85
2021/09/11 04:14:08;;;;;;;5.60;4.97;;;17.80;99.90;;;;;;5051954;28;20105;-85
2021/09/11 04:16:33;;;;;;;6.75;5.32;;;17.70;99.90;;;;;;5051795;28;20039;-85
2021/09/11 04:18:59;;;;;;;6.90;4.90;;;17.70;99.90;;;;;;5051790;28;20024;-85
2021/09/11 04:21:25;;;;;;;8.85;5.10;;;17.70;99.90;;;;;;5051846;28;20131;-85
2021/09/11 04:23:50;;;;;;;8.02;5.57;;;17.60;99.90;;;;;;5051839;28;20021;-85
2021/09/11 04:26:16;;;;;;;7.28;5.43;;;17.60;99.90;;;;;;5053658;28;20029;-86
2021/09/11 04:28:42;;;;;;;5.90;5.30;;;17.60;99.90;;;;;;5053321;28;20074;-85
2021/09/11 04:31:08;;;;;;;6.75;5.60;;;17.70;99.90;;;;;;5052916;28;20369;-85
2021/09/11 04:33:33;;;;;;;6.53;5.55;;;17.60;99.90;;;;;;5053029;28;20028;-85
2021/09/11 04:35:59;;;;;;;7.53;5.30;;;17.60;99.90;;;;;;5051582;28;20021;-85
2021/09/11 04:38:25;;;;;;;6.07;5.22;;;17.70;99.90;;;;;;5051674;28;20075;-85
2021/09/11 04:40:51;;;;;;;6.35;5.00;;;17.80;99.90;;;;;;5052930;28;20017;-86
2021/09/11 04:43:17;;;;;;;5.50;4.75;;;17.80;99.90;;;;;;5051604;28;20021;-85
2021/09/11 04:45:44;;;;;;;11.00;5.18;;;17.80;99.90;;;;;;5052928;28;20472;-85
2021/09/11 04:48:10;;;;;;;5.22;4.63;;;17.80;99.90;;;;;;5051587;28;20499;-85
2021/09/11 04:50:36;;;;;;;6.70;5.05;;;17.70;99.90;;;;;;5052851;28;20021;-85
2021/09/11 04:53:02;;;;;;;6.07;4.55;;;17.70;99.90;;;;;;5051344;28;20417;-85
2021/09/11 04:55:28;;;;;;;7.30;4.65;;;17.70;99.90;;;;;;5052737;28;20056;-85
2021/09/11 04:57:54;;;;;;;7.10;4.60;;;17.80;99.90;;;;;;5052701;28;20049;-85
2021/09/11 05:00:20;;;;;;;5.40;4.80;;;17.80;99.90;;;;;;5051466;28;20021;-85
2021/09/11 05:02:46;;;;;;;8.98;4.88;;;17.80;99.90;;;;;;5051390;28;20025;-85
2021/09/11 05:05:11;;;;;;;6.28;4.28;;;17.80;99.90;;;;;;5051424;28;20438;-85
2021/09/11 05:07:37;;;;;;;5.78;4.18;;;17.80;99.90;;;;;;5051358;28;20036;-85
2021/09/11 05:10:04;;;;;;;4.32;3.58;;;18.10;99.90;;;;;;5054285;28;20040;-86
2021/09/11 05:12:29;;;;;;;4.60;3.70;;;18.20;99.90;;;;;;5055063;28;20112;-85
2021/09/11 05:14:55;;;;;;;5.07;3.10;;;18.20;99.90;;;;;;5054975;28;20441;-85
2021/09/11 05:17:21;;;;;;;4.80;3.55;;;18.20;99.90;;;;;;5055013;28;20024;-85
2021/09/11 05:19:46;;;;;;;6.78;3.95;;;18.20;99.90;;;;;;5056518;28;20389;-85
2021/09/11 05:22:12;;;;;;;6.55;4.03;;;18.30;99.90;;;;;;5054921;28;20396;-85
2021/09/11 05:24:38;;;;;;;4.63;4.03;;;18.40;99.90;;;;;;5054889;28;20021;-85
2021/09/11 05:27:05;;;;;;;3.80;3.20;;;18.40;99.90;;;;;;5054834;28;20028;-85
2021/09/11 05:29:30;;;;;;;4.00;2.92;;;18.50;99.90;;;;;;5056121;28;20025;-85
2021/09/11 05:31:56;;;;;;;4.72;2.65;;;18.40;99.90;;;;;;5054736;28;20070;-85
2021/09/11 05:34:22;;;;;;;3.25;2.85;;;18.40;99.90;;;;;;5054720;28;20021;-85
2021/09/11 05:36:49;;;;;;;5.28;2.90;;;18.30;99.90;;;;;;5055999;28;20104;-85
2021/09/11 05:39:16;;;;;;;3.20;2.90;;;18.40;99.90;;;;;;5056163;28;20329;-84
2021/09/11 05:41:42;;;;;;;3.83;3.42;;;18.40;99.90;;;;;;5055861;28;20021;-84
2021/09/11 05:44:07;;;;;;;5.00;3.03;;;18.50;99.90;;;;;;5054530;28;20030;-85
2021/09/11 05:46:33;;;;;;;3.28;2.67;;;18.40;99.90;;;;;;5055722;28;20111;-85
2021/09/11 05:48:59;;;;;;;3.50;3.20;;;18.30;99.90;;;;;;5054442;28;20025;-85
2021/09/11 05:51:24;;;;;;;3.22;2.75;;;18.40;99.90;;;;;;5054405;28;20025;-85
2021/09/11 05:53:50;;;;;;;6.95;3.25;;;18.30;99.90;;;;;;5054074;28;20128;-84
2021/09/11 05:56:16;;;;;;;3.35;2.90;;;18.40;99.90;;;;;;5054064;28;20511;-85
2021/09/11 05:58:41;;;;;;;3.90;2.72;;;18.50;99.90;;;;;;5055414;28;20092;-85
2021/09/11 06:01:07;;;;;;;4.93;3.20;;;18.30;99.90;;;;;;5054149;28;20032;-84
2021/09/11 06:03:34;;;;;;;3.72;2.70;;;18.40;99.90;;;;;;5054206;28;20106;-85
2021/09/11 06:06:00;;;;;;;4.15;2.80;;;18.40;99.90;;;;;;5054114;28;20029;-85
2021/09/11 06:08:26;;;;;;;3.30;2.53;;;18.50;99.90;;;;;;5054087;28;20032;-85
2021/09/11 06:10:52;;;;;;;3.13;2.78;;;18.50;99.90;;;;;;5055283;28;20029;-85
2021/09/11 06:13:17;;;;;;;3.08;2.50;;;18.60;99.90;;;;;;5054236;28;20053;-85
2021/09/11 06:15:43;;;;;;;5.32;2.90;;;18.60;99.90;;;;;;5053812;28;20083;-85
2021/09/11 06:18:09;;;;;;;5.00;3.08;;;18.60;99.90;;;;;;5055116;28;20021;-85
2021/09/11 06:20:35;;;;;;;3.58;2.95;;;18.40;99.90;;;;;;5054444;28;20436;-85
2021/09/11 06:23:00;;;;;;;4.00;2.53;;;18.40;99.90;;;;;;5053748;28;20061;-85
2021/09/11 06:25:26;;;;;;;5.60;2.85;;;18.40;99.90;;;;;;5053786;28;20035;-85
2021/09/11 06:27:54;;;;;;;4.03;2.50;;;18.40;99.90;;;;;;5053651;28;20366;-85
2021/09/11 06:30:21;;;;;;;4.43;2.55;;;18.40;99.90;;;;;;5053632;28;20489;-85
2021/09/11 06:32:47;;;;;;;7.90;2.92;;;18.40;99.90;;;;;;5054863;28;20498;-85
2021/09/11 06:35:13;;;;;;;4.45;2.88;;;18.50;99.90;;;;;;5053530;28;20025;-85
2021/09/11 06:37:38;;;;;;;6.18;2.60;;;18.60;99.90;;;;;;5054394;28;20032;-85
2021/09/11 06:40:05;;;;;;;4.22;2.55;;;18.70;99.90;;;;;;5060260;28;20017;-84
2021/09/11 06:42:30;;;;;;;3.72;2.72;;;18.80;99.90;;;;;;5065966;28;20045;-85
2021/09/11 06:44:56;;;;;;;3.45;2.72;;;18.80;99.90;;;;;;5060633;28;20088;-86
2021/09/11 06:47:22;;;;;;;5.28;3.08;;;18.80;99.90;;;;;;5054673;28;20389;-85
2021/09/11 06:49:47;;;;;;;3.35;2.78;;;18.80;99.90;;;;;;5055028;28;20021;-85
2021/09/11 06:52:13;;;;;;;3.65;2.80;;;18.80;99.90;;;;;;5054566;28;20096;-85
2021/09/11 06:54:39;;;;;;;4.03;2.65;;;18.90;99.90;;;;;;5053001;28;20045;-85
2021/09/11 06:57:04;;;;;;;3.58;2.83;;;18.80;99.90;;;;;;5053196;28;20208;-85
2021/09/11 06:59:30;;;;;;;3.13;2.83;;;18.80;99.90;;;;;;5054328;28;20025;-85
2021/09/11 07:01:56;;;;;;;6.25;2.90;;;18.70;99.90;;;;;;5053057;28;20024;-85
2021/09/11 07:04:22;;;;;;;3.95;2.83;;;18.60;99.90;;;;;;5052788;28;20021;-86
2021/09/11 07:06:48;;;;;;;3.95;3.03;;;18.60;99.90;;;;;;5054400;28;20025;-85
2021/09/11 07:09:14;;;;;;;7.70;3.10;;;18.50;99.90;;;;;;5052969;28;20388;-85
2021/09/11 07:11:40;;;;;;;5.88;2.83;;;18.40;99.90;;;;;;5052886;28;20029;-89
2021/09/11 07:14:06;;;;;;;5.90;3.22;;;18.40;99.90;;;;;;5053172;28;20036;-89
2021/09/11 07:16:31;;;;;;;4.20;3.08;;;18.50;99.90;;;;;;5053024;28;20025;-89
2021/09/11 07:18:57;;;;;;;4.05;3.10;;;18.60;99.90;;;;;;5053028;28;20017;-89
2021/09/11 07:21:23;;;;;;;5.45;3.40;;;18.80;99.90;;;;;;5052994;28;20028;-89
2021/09/11 07:23:48;;;;;;;4.45;3.00;;;18.80;99.90;;;;;;5054329;28;20029;-88
2021/09/11 07:26:19;;;;;;;5.10;2.92;;;18.90;99.90;;;;;;5052896;28;20029;-88
2021/09/11 07:28:46;;;;;;;3.75;2.90;;;18.90;99.90;;;;;;5052897;28;20115;-89
2021/09/11 07:31:12;;;;;;;5.45;3.05;;;19.10;99.90;;;;;;5052940;28;20025;-88
2021/09/11 07:33:38;;;;;;;4.35;2.92;;;19.00;99.90;;;;;;5051820;28;20029;-88
2021/09/11 07:36:06;;;;;;;5.32;3.30;;;19.30;99.90;;;;;;5052511;28;20032;-88
2021/09/11 07:38:32;;;;;;;3.88;2.72;;;19.20;99.90;;;;;;5052610;28;20021;-88
2021/09/11 07:40:57;;;;;;;3.65;2.85;;;19.00;99.90;;;;;;5052662;28;20032;-90
2021/09/11 07:43:23;;;;;;;5.03;2.60;;;19.20;99.90;;;;;;5052978;28;20024;-89
2021/09/11 07:45:49;;;;;;;5.50;2.63;;;19.20;99.90;;;;;;5052965;28;20025;-89
2021/09/11 07:48:14;;;;;;;5.00;2.65;;;19.40;99.90;;;;;;5052808;28;20553;-88
2021/09/11 07:50:40;;;;;;;4.82;2.67;;;19.50;99.90;;;;;;5052421;28;20031;-84
2021/09/11 07:53:06;;;;;;;5.47;2.70;;;19.40;99.90;;;;;;5047249;28;20045;-88
2021/09/11 07:55:33;;;;;;;4.53;2.55;;;19.30;99.90;;;;;;5016417;28;20087;-88
2021/09/11 07:57:58;;;;;;;5.03;2.90;;;19.50;99.90;;;;;;5033572;28;20014;-88
2021/09/11 08:00:25;;;;;;;6.32;2.63;;;19.60;99.90;;;;;;5016062;28;20497;-88
2021/09/11 08:02:51;;;;;;;4.07;2.70;;;19.70;99.90;;;;;;5016138;28;20029;-88
2021/09/11 08:05:17;;;;;;;6.47;2.40;;;19.80;99.90;;;;;;5016045;28;20456;-88
2021/09/11 08:07:42;;;;;;;5.03;2.42;;;19.90;99.90;;;;;;5016336;28;20060;-87
2021/09/11 08:10:08;;;;;;;4.60;2.60;;;20.30;99.90;;;;;;5034186;28;20022;-88
2021/09/11 08:12:34;;;;;;;5.95;2.22;;;20.60;99.90;;;;;;5033646;28;20022;-88
2021/09/11 08:15:01;;;;;;;5.32;2.35;;;20.70;99.90;;;;;;5033651;28;20104;-88
2021/09/11 08:17:27;;;;;;;5.00;2.10;;;20.70;99.90;;;;;;5016008;28;20026;-88
2021/09/11 08:19:52;;;;;;;4.40;2.33;;;20.80;99.90;;;;;;5016293;28;20018;-88
2021/09/11 08:22:18;;;;;;;3.53;2.50;;;21.00;99.90;;;;;;5016215;28;20021;-89
2021/09/11 08:24:44;;;;;;;2.78;1.95;;;21.30;99.90;;;;;;5033833;28;20558;-87
2021/09/11 08:27:10;;;;;;;3.08;2.40;;;21.70;99.90;;;;;;5015806;28;20026;-88
2021/09/11 08:29:36;;;;;;;5.30;1.95;;;21.80;99.90;;;;;;5016746;28;20022;-87
2021/09/11 08:32:05;;;;;;;2.33;2.00;;;21.90;99.90;;;;;;5015729;28;20022;-86
2021/09/11 08:34:30;;;;;;;2.80;1.88;;;21.90;99.90;;;;;;5015860;28;20452;-86
2021/09/11 08:36:56;;;;;;;3.08;1.70;;;22.00;99.90;;;;;;5015492;28;20116;-87
2021/09/11 08:39:25;;;;;;;2.70;1.75;;;22.00;99.90;;;;;;5015447;28;20018;-87
2021/09/11 08:41:52;;;;;;;3.25;1.50;;;22.00;99.90;;;;;;5015384;28;20092;-87
2021/09/11 08:44:18;;;;;;;3.38;1.70;;;21.80;99.90;;;;;;5017422;28;20076;-86
2021/09/11 08:46:48;;;;;;;6.93;2.17;;;21.70;99.90;;;;;;5019883;28;20370;-86
2021/09/11 08:49:14;;;;;;;6.97;2.00;;;21.60;99.90;;;;;;5019915;28;20044;-86
2021/09/11 08:51:40;;;;;;;2.88;1.60;;;21.70;99.90;;;;;;5022368;28;20071;-85
2021/09/11 08:54:05;;;;;;;3.45;1.80;;;21.50;99.90;;;;;;5051458;28;20040;-88
2021/09/11 08:56:39;;;;;;;2.78;1.63;;;21.70;99.90;;;;;;5058769;28;20025;-87
2021/09/11 08:59:13;;;;;;;5.78;1.60;;;21.70;99.90;;;;;;5057511;28;20472;-87
2021/09/11 09:01:40;;;;;;;2.10;1.45;;;21.80;99.90;;;;;;5056176;28;20025;-87
2021/09/11 09:04:06;;;;;;;2.53;1.50;;;22.20;99.90;;;;;;5055533;28;20024;-87
2021/09/11 09:06:33;;;;;;;2.58;1.75;;;22.40;99.90;;;;;;5055766;28;20029;-86
2021/09/11 09:09:13;;;;;;;3.35;1.40;;;22.10;99.90;;;;;;5056764;28;20033;-87
2021/09/11 09:11:44;;;;;;;2.33;1.75;;;22.00;99.90;;;;;;5056579;28;20064;-87
2021/09/11 09:14:12;;;;;;;3.28;1.60;;;22.00;99.90;;;;;;5055281;28;20054;-87
2021/09/11 09:16:47;;;;;;;1.92;1.50;;;22.10;99.90;;;;;;5056445;28;20083;-87
2021/09/11 09:19:24;;;;;;;2.40;1.60;;;22.40;99.90;;;;;;5055193;28;20021;-87
2021/09/11 09:21:52;;;;;;;4.22;1.50;;;22.70;99.90;;;;;;5055215;28;20494;-87
2021/09/11 09:24:33;;;;;;;2.78;1.60;;;22.70;99.90;;;;;;5055137;28;20467;-86
2021/09/11 09:27:06;;;;;;;4.28;1.55;;;22.90;99.90;;;;;;5056456;28;20024;-87
2021/09/11 09:29:36;;;;;;;3.67;1.50;;;23.20;99.90;;;;;;5055089;28;20032;-87
2021/09/11 09:32:03;;;;;;;1.70;1.25;;;23.30;99.90;;;;;;5056198;28;20397;-87
2021/09/11 09:34:41;;;;;;;3.75;1.50;;;23.30;99.90;;;;;;5054814;28;20083;-88
2021/09/11 09:37:14;;;;;;;2.40;1.60;;;23.00;99.90;;;;;;5056176;28;20035;-88
2021/09/11 09:39:45;;;;;;;6.82;1.63;;;22.90;99.90;;;;;;5054755;28;20028;-88
2021/09/11 09:42:12;;;;;;;2.05;1.23;;;22.80;99.90;;;;;;5054688;28;20120;-88
2021/09/11 09:44:45;;;;;;;3.70;1.70;;;22.80;99.90;;;;;;5054783;28;20025;-87
2021/09/11 09:47:16;;;;;;;2.83;1.45;;;22.70;99.90;;;;;;5054855;28;20033;-88
2021/09/11 09:50:08;;;;;;;3.33;1.98;;;23.00;99.90;;;;;;5055016;28;20112;-88
2021/09/11 09:52:35;;;;;;;3.88;1.30;;;23.20;99.90;;;;;;5052571;28;20070;-88
2021/09/11 09:55:02;;;;;;;4.28;1.33;;;22.90;99.90;;;;;;5035474;28;20040;-88
2021/09/11 09:57:29;;;;;;;3.53;1.60;;;22.60;99.90;;;;;;5018138;28;20128;-88
2021/09/11 09:59:57;;;;;;;2.65;1.50;;;22.80;99.90;;;;;;5018260;28;20498;-88
2021/09/11 10:02:22;;;;;;;4.30;1.10;;;23.30;99.90;;;;;;5035890;28;20022;-88
2021/09/11 10:04:52;;;;;;;2.92;1.50;;;23.70;99.90;;;;;;5018072;28;20432;-88
2021/09/11 10:07:22;;;;;;;2.55;1.45;;;23.50;99.90;;;;;;5018188;28;20029;-88
2021/09/11 10:09:49;;;;;;;2.08;1.65;;;23.60;99.90;;;;;;5018160;28;20029;-88
2021/09/11 10:12:36;;;;;;;4.38;1.50;;;23.20;99.90;;;;;;5018006;28;20056;-88
2021/09/11 10:15:35;;;;;;;2.78;1.67;;;23.20;99.90;;;;;;5018203;28;20397;-86
2021/09/11 10:18:02;;;;;;;2.17;1.50;;;22.80;99.90;;;;;;5035720;28;20040;-88
2021/09/11 10:21:07;;;;;;;2.00;1.67;;;22.40;99.90;;;;;;5017985;28;20032;-88
2021/09/11 10:23:32;;;;;;;15.05;3.97;;;22.20;99.90;;;;;;5035503;28;20024;-89
2021/09/11 10:25:58;;;;;;;18.25;4.10;;;21.70;99.90;;;;;;5017682;28;20112;-89
2021/09/11 10:28:24;;;;;;;14.98;2.80;;;20.70;99.90;;;;;;5017671;28;20036;-91
2021/09/11 10:31:08;;;;;;;4.28;2.45;;;20.00;99.90;;;;;;5017855;28;20057;-90
2021/09/11 10:33:40;;;;;;;10.57;2.60;;;19.40;99.90;;;;;;5018157;28;20054;-90
2021/09/11 10:36:12;;;;;;;6.93;2.40;;;18.70;99.90;;;;;;5017971;28;20073;-90
2021/09/11 10:38:42;;;;;;;4.28;1.83;;;18.40;99.90;;;;;;5019613;28;20449;-91
2021/09/11 10:41:14;;;;;;;4.03;2.20;;;18.50;99.90;;;;;;5018341;28;20452;-91
2021/09/11 10:44:08;;;;;;;4.22;1.90;;;18.50;99.90;;;;;;5018295;28;20044;-91
2021/09/11 10:46:50;;;;;;;6.22;2.05;;;18.50;99.90;;;;;;5018738;28;20111;-92
2021/09/11 10:49:25;;;;;;;3.10;1.48;;;18.60;99.90;;;;;;5019213;28;20033;-92
2021/09/11 10:52:06;;;;;;;2.72;1.50;;;18.60;99.90;;;;;;5019164;28;20112;-91
2021/09/11 10:54:40;;;;;;;13.90;7.85;;;18.60;99.90;;;;;;5051263;28;20052;-92
2021/09/11 10:57:09;;;;;;;8.38;3.33;;;18.70;99.90;;;;;;5055892;28;20039;-91
2021/09/11 10:59:37;;;;;;;5.03;2.00;;;18.90;99.90;;;;;;5057786;28;20024;-92
2021/09/11 11:02:04;;;;;;;5.80;2.10;;;18.90;99.90;;;;;;5071387;28;20028;-93
2021/09/11 11:04:52;;;;;;;2.90;1.50;;;18.80;99.90;;;;;;5078072;28;20021;-93
2021/09/11 11:07:18;;;;;;;3.08;1.80;;;18.80;99.90;;;;;;5063792;28;20124;-93
2021/09/11 11:09:53;;;;;;;3.63;2.15;;;18.90;99.90;;;;;;5056704;28;20437;-93
2021/09/11 11:12:24;;;;;;;8.88;2.60;;;18.90;99.90;;;;;;5056123;28;20112;-93
2021/09/11 11:14:53;;;;;;;3.55;2.22;;;18.90;99.90;;;;;;5055341;28;20456;-94
2021/09/11 11:17:42;;;;;;;6.07;2.92;;;18.80;99.90;;;;;;5056736;28;20021;-91
2021/09/11 11:20:08;;;;;;;9.10;5.60;;;18.70;99.90;;;;;;5054257;28;20112;-91
2021/09/11 11:22:42;;;;;;;7.82;3.38;;;18.70;99.90;;;;;;5054057;28;20067;-92
2021/09/11 11:25:14;;;;;;;4.15;2.40;;;18.70;99.90;;;;;;5054034;28;20032;-93
2021/09/11 11:27:40;;;;;;;3.65;2.20;;;18.70;99.90;;;;;;5054108;28;20374;-91
2021/09/11 11:30:09;;;;;;;3.28;2.00;;;18.70;99.90;;;;;;5053973;28;20611;-90
2021/09/11 11:32:35;;;;;;;2.72;2.00;;;18.90;99.90;;;;;;5053990;28;20426;-90
2021/09/11 11:35:02;;;;;;;4.03;1.90;;;19.20;99.90;;;;;;5053967;28;20500;-91
2021/09/11 11:37:30;;;;;;;3.55;1.80;;;19.60;99.90;;;;;;5053306;28;20028;-90
2021/09/11 11:40:16;;;;;;;4.38;1.90;;;19.90;99.90;;;;;;5053753;28;20028;-90
2021/09/11 11:42:43;;;;;;;3.03;1.40;;;20.10;99.90;;;;;;5054511;28;20028;-91
2021/09/11 11:45:14;;;;;;;2.92;1.90;;;20.90;99.90;;;;;;5053294;28;20025;-91
2021/09/11 11:47:57;;;;;;;5.55;2.50;;;22.40;99.90;;;;;;5053453;28;20029;-92
2021/09/11 11:50:27;;;;;;;3.55;1.73;;;23.00;99.90;;;;;;5053894;28;20032;-91
2021/09/11 11:53:01;;;;;;;2.45;1.60;;;22.30;99.90;;;;;;5053896;28;20049;-92
2021/09/11 11:55:30;;;;;;;2.83;2.00;;;22.10;99.90;;;;;;5053614;28;20037;-92
2021/09/11 11:58:12;;;;;;;3.13;1.80;;;21.90;99.90;;;;;;5053389;28;20025;-91
2021/09/11 12:00:44;;;;;;;2.13;1.40;;;21.70;99.90;;;;;;5053472;28;20028;-92
2021/09/11 12:03:33;;;;;;;3.05;1.70;;;21.60;99.90;;;;;;5053418;28;20021;-91
2021/09/11 12:06:00;;;;;;;2.72;1.70;;;21.80;99.90;;;;;;5053327;28;20028;-92
2021/09/11 12:08:27;;;;;;;2.47;1.45;;;22.50;99.90;;;;;;5053865;28;20025;-93
2021/09/11 12:10:55;;;;;;;2.20;1.17;;;22.70;99.90;;;;;;5053246;28;20025;-92
2021/09/11 12:13:22;;;;;;;3.30;1.40;;;22.80;99.90;;;;;;5053997;28;20483;-92
2021/09/11 12:15:48;;;;;;;2.08;1.40;;;24.10;99.90;;;;;;5053669;28;20120;-92
2021/09/11 12:18:18;;;;;;;4.38;1.75;;;23.70;99.90;;;;;;5053329;28;20071;-92
2021/09/11 12:20:52;;;;;;;1.80;1.15;;;23.40;99.90;;;;;;5053304;28;20029;-91
2021/09/11 12:23:21;;;;;;;1.42;1.30;;;23.40;99.90;;;;;;5053248;28;20025;-92
2021/09/11 12:26:00;;;;;;;2.63;1.60;;;23.30;99.90;;;;;;5052373;28;20039;-91
2021/09/11 12:28:32;;;;;;;2.88;1.42;;;22.90;99.90;;;;;;5053318;28;20060;-91
2021/09/11 12:30:58;;;;;;;2.58;1.35;;;22.40;99.90;;;;;;5053400;28;20037;-91
2021/09/11 12:33:25;;;;;;;2.53;1.20;;;22.20;99.90;;;;;;5053212;28;20032;-90
2021/09/11 12:35:51;;;;;;;2.03;1.60;;;22.20;99.90;;;;;;5052563;28;20082;-90
2021/09/11 12:38:17;;;;;;;2.75;1.35;;;22.10;99.90;;;;;;5052329;28;20025;-90
2021/09/11 12:40:43;;;;;;;3.28;1.58;;;22.30;99.90;;;;;;5052573;28;20043;-90
2021/09/11 12:43:10;;;;;;;5.57;1.40;;;22.40;99.90;;;;;;5052271;28;20028;-89
2021/09/11 12:45:38;;;;;;;2.17;1.30;;;22.70;99.90;;;;;;5052276;28;20032;-89
2021/09/11 12:48:05;;;;;;;2.85;1.60;;;22.60;99.90;;;;;;5052170;28;20480;-91